createdAt,value
2022-09-24T00:01:44.713Z,5.60
2022-09-24T00:04:12.880Z,5.80
2022-09-24T00:06:42.536Z,5.40
2022-09-24T00:09:11.903Z,5.30
2022-09-24T00:11:40.056Z,5.80
2022-09-24T00:14:08.135Z,5.40
2022-09-24T00:16:36.344Z,5.50
2022-09-24T00:19:05.283Z,5.30
2022-09-24T00:21:34.612Z,5.70
2022-09-24T00:24:04.549Z,5.40
2022-09-24T00:26:50.418Z,4.90
2022-09-24T00:29:22.462Z,5.20
2022-09-24T00:31:51.099Z,5.40
2022-09-24T00:34:19.785Z,5.10
2022-09-24T00:36:48.608Z,5.30
2022-09-24T00:39:17.251Z,5.40
2022-09-24T00:41:49.179Z,5.50
2022-09-24T00:44:36.305Z,4.90
2022-09-24T00:47:05.193Z,5.50
2022-09-24T00:49:32.951Z,5.20
2022-09-24T00:52:00.920Z,5.10
2022-09-24T00:54:29.114Z,5.10
2022-09-24T00:56:58.705Z,5.40
2022-09-24T00:59:27.399Z,5.10
2022-09-24T01:01:57.727Z,5.70
2022-09-24T01:04:27.224Z,4.60
2022-09-24T01:06:56.001Z,5.30
2022-09-24T01:09:25.959Z,5.20
2022-09-24T01:11:59.720Z,5.20
2022-09-24T01:14:33.220Z,5.90
2022-09-24T01:17:00.882Z,5.70
2022-09-24T01:19:52.438Z,6.80
2022-09-24T01:22:26.090Z,6.90
2022-09-24T01:25:08.098Z,7.70
2022-09-24T01:27:39.364Z,7.20
2022-09-24T01:30:10.751Z,7.70
2022-09-24T01:32:41.262Z,6.40
2022-09-24T01:35:27.723Z,6.60
2022-09-24T01:37:58.502Z,5.70
2022-09-24T01:40:27.921Z,5.70
2022-09-24T01:42:57.164Z,5.90
2022-09-24T01:45:28.941Z,5.70
2022-09-24T01:47:56.686Z,5.60
2022-09-24T01:50:24.852Z,5.40
2022-09-24T01:52:56.283Z,5.90
2022-09-24T01:55:25.807Z,5.70
2022-09-24T01:58:00.022Z,5.40
2022-09-24T02:00:28.021Z,5.80
2022-09-24T02:03:07.800Z,6.30
2022-09-24T02:05:41.523Z,5.70
2022-09-24T02:08:12.117Z,5.90
2022-09-24T02:10:59.973Z,6.20
2022-09-24T02:13:29.827Z,6.60
2022-09-24T02:15:59.753Z,8.00
2022-09-24T02:18:29.776Z,10.20
2022-09-24T02:20:58.915Z,9.60
2022-09-24T02:23:28.383Z,8.70
2022-09-24T02:25:58.567Z,10.30
2022-09-24T02:28:26.954Z,9.40
2022-09-24T02:31:04.869Z,7.70
2022-09-24T02:34:06.563Z,7.00
2022-09-24T02:36:35.217Z,6.90
2022-09-24T02:39:03.457Z,6.70
2022-09-24T02:41:31.944Z,6.40
2022-09-24T02:43:59.914Z,6.90
2022-09-24T02:46:28.535Z,6.00
2022-09-24T02:48:56.584Z,6.30
2022-09-24T02:51:24.439Z,6.10
2022-09-24T02:53:52.294Z,6.60
2022-09-24T02:56:19.964Z,7.70
2022-09-24T02:58:48.060Z,9.80
2022-09-24T03:01:15.683Z,9.40
2022-09-24T03:03:43.692Z,9.60
2022-09-24T03:06:13.726Z,9.70
2022-09-24T03:08:42.675Z,9.50
2022-09-24T03:11:15.092Z,8.60
2022-09-24T03:13:45.831Z,7.10
2022-09-24T03:16:13.708Z,6.10
2022-09-24T03:18:41.427Z,6.90
2022-09-24T03:21:11.045Z,6.50
2022-09-24T03:23:38.696Z,6.30
2022-09-24T03:26:06.450Z,7.00
2022-09-24T03:28:34.609Z,8.70
2022-09-24T03:31:02.779Z,8.70
2022-09-24T03:33:35.059Z,9.40
2022-09-24T03:36:04.531Z,8.60
2022-09-24T03:38:32.533Z,8.30
2022-09-24T03:41:00.781Z,7.30
2022-09-24T03:43:29.073Z,7.20
2022-09-24T03:45:56.855Z,7.00
2022-09-24T03:48:25.791Z,6.80
2022-09-24T03:50:53.802Z,6.20
2022-09-24T03:53:22.282Z,6.20
2022-09-24T03:55:54.966Z,5.90
2022-09-24T03:58:23.314Z,5.50
2022-09-24T04:00:54.513Z,5.10
2022-09-24T04:03:22.993Z,5.10
2022-09-24T04:05:51.456Z,4.70
2022-09-24T04:08:19.919Z,5.20
2022-09-24T04:10:49.030Z,5.20
2022-09-24T04:13:17.605Z,4.70
2022-09-24T04:15:45.790Z,5.10
2022-09-24T04:18:13.844Z,5.60
2022-09-24T04:20:42.124Z,7.10
2022-09-24T04:23:10.699Z,7.10
2022-09-24T04:25:40.679Z,7.60
2022-09-24T04:28:09.162Z,6.20
2022-09-24T04:30:38.346Z,6.80
2022-09-24T04:33:06.881Z,6.30
2022-09-24T04:35:38.471Z,6.20
2022-09-24T04:38:06.209Z,6.10
2022-09-24T04:40:33.940Z,6.20
2022-09-24T04:43:02.247Z,5.40
2022-09-24T04:45:30.400Z,5.50
2022-09-24T04:47:58.602Z,5.60
2022-09-24T04:50:27.679Z,5.70
2022-09-24T04:52:56.149Z,6.10
2022-09-24T04:55:24.113Z,6.50
2022-09-24T04:57:51.985Z,5.80
2022-09-24T05:00:21.007Z,6.30
2022-09-24T05:02:56.061Z,6.40
2022-09-24T05:05:24.071Z,7.40
2022-09-24T05:07:51.863Z,8.30
2022-09-24T05:10:19.960Z,6.50
2022-09-24T05:12:48.194Z,6.10
2022-09-24T05:15:16.160Z,6.50
2022-09-24T05:17:44.241Z,5.60
2022-09-24T05:20:12.199Z,5.80
2022-09-24T05:22:44.162Z,6.10
2022-09-24T05:25:13.159Z,6.80
2022-09-24T05:27:47.989Z,7.00
2022-09-24T05:30:16.267Z,6.20
2022-09-24T05:32:44.082Z,5.30
2022-09-24T05:35:12.808Z,5.90
2022-09-24T05:37:40.674Z,6.10
2022-09-24T05:40:27.337Z,6.10
2022-09-24T05:43:00.042Z,6.60
2022-09-24T05:45:29.368Z,6.40
2022-09-24T05:47:57.432Z,6.80
2022-09-24T05:50:25.298Z,6.80
2022-09-24T05:52:53.475Z,6.70
2022-09-24T05:55:21.164Z,7.40
2022-09-24T05:57:49.718Z,7.70
2022-09-24T06:00:17.488Z,7.40
2022-09-24T06:02:45.622Z,7.60
2022-09-24T06:05:13.824Z,7.60
2022-09-24T06:07:41.691Z,7.50
2022-09-24T06:10:10.489Z,7.40
2022-09-24T06:12:38.347Z,7.60
2022-09-24T06:15:06.520Z,7.30
2022-09-24T06:17:34.849Z,7.30
2022-09-24T06:20:02.596Z,7.70
2022-09-24T06:22:30.525Z,8.70
2022-09-24T06:24:58.435Z,9.20
2022-09-24T06:27:29.228Z,8.70
2022-09-24T06:29:57.666Z,8.60
2022-09-24T06:32:25.983Z,9.80
2022-09-24T06:34:58.895Z,9.20
2022-09-24T06:37:27.450Z,10.10
2022-09-24T06:39:55.632Z,9.30
2022-09-24T06:42:23.419Z,9.80
2022-09-24T06:44:51.659Z,9.90
2022-09-24T06:47:19.834Z,9.70
2022-09-24T06:49:50.242Z,9.10
2022-09-24T06:52:17.938Z,9.40
2022-09-24T06:54:45.787Z,9.00
2022-09-24T06:57:13.763Z,9.20
2022-09-24T06:59:41.621Z,9.30
2022-09-24T07:02:10.638Z,8.80
2022-09-24T07:04:48.622Z,9.10
2022-09-24T07:07:36.637Z,9.00
2022-09-24T07:10:08.019Z,8.50
2022-09-24T07:12:36.682Z,9.30
2022-09-24T07:15:04.762Z,9.20
2022-09-24T07:17:34.034Z,9.40
2022-09-24T07:20:02.607Z,10.20
2022-09-24T07:22:30.820Z,8.90
2022-09-24T07:24:58.453Z,11.20
2022-09-24T07:27:26.277Z,11.00
2022-09-24T07:29:55.138Z,9.00
2022-09-24T07:32:28.965Z,8.50
2022-09-24T07:34:57.624Z,8.40
2022-09-24T07:37:25.897Z,9.00
2022-09-24T07:39:53.866Z,7.80
2022-09-24T07:42:22.365Z,7.50
2022-09-24T07:44:50.836Z,7.90
2022-09-24T07:47:18.896Z,8.30
2022-09-24T07:49:46.661Z,8.10
2022-09-24T07:52:14.507Z,7.60
2022-09-24T07:54:42.399Z,7.20
2022-09-24T07:57:13.062Z,7.80
2022-09-24T07:59:41.720Z,7.70
2022-09-24T08:02:17.204Z,7.80
2022-09-24T08:04:45.323Z,7.90
2022-09-24T08:07:13.341Z,7.60
2022-09-24T08:09:41.179Z,7.40
2022-09-24T08:12:09.739Z,7.20
2022-09-24T08:14:37.416Z,7.50
2022-09-24T08:17:05.345Z,7.90
2022-09-24T08:19:34.163Z,8.20
2022-09-24T08:22:02.650Z,7.70
2022-09-24T08:24:32.143Z,7.30
2022-09-24T08:27:01.475Z,7.30
2022-09-24T08:29:29.206Z,7.60
2022-09-24T08:31:57.377Z,7.10
2022-09-24T08:34:25.346Z,6.90
2022-09-24T08:36:53.402Z,7.50
2022-09-24T08:39:21.693Z,7.60
2022-09-24T08:42:01.327Z,7.40
2022-09-24T08:44:53.907Z,6.80
2022-09-24T08:47:44.760Z,7.20
2022-09-24T08:50:16.853Z,6.30
2022-09-24T08:52:54.752Z,6.70
2022-09-24T08:56:00.747Z,7.10
2022-09-24T08:58:44.792Z,7.80
2022-09-24T09:01:13.397Z,7.20
2022-09-24T09:04:00.353Z,6.90
2022-09-24T09:06:54.162Z,6.90
2022-09-24T09:09:23.838Z,7.10
2022-09-24T09:11:53.230Z,6.80
2022-09-24T09:14:26.969Z,6.80
2022-09-24T09:17:21.431Z,6.60
2022-09-24T09:19:55.337Z,6.40
2022-09-24T09:22:25.053Z,6.30
2022-09-24T09:24:53.737Z,6.40
2022-09-24T09:27:22.008Z,6.00
2022-09-24T09:29:51.668Z,6.90
2022-09-24T09:32:22.452Z,6.30
2022-09-24T09:35:19.692Z,6.50
2022-09-24T09:37:58.853Z,6.70
2022-09-24T09:40:32.114Z,6.90
2022-09-24T09:43:04.717Z,6.60
2022-09-24T09:45:52.131Z,6.30
2022-09-24T09:48:21.591Z,5.90
2022-09-24T09:50:50.988Z,6.30
2022-09-24T09:53:28.426Z,5.90
2022-09-24T09:55:58.033Z,6.00
2022-09-24T09:58:27.135Z,6.10
2022-09-24T10:01:06.062Z,6.10
2022-09-24T10:03:36.203Z,6.30
2022-09-24T10:06:06.289Z,6.80
2022-09-24T10:08:34.051Z,6.60
2022-09-24T10:11:03.557Z,6.30
2022-09-24T10:13:32.448Z,6.20
2022-09-24T10:16:09.156Z,5.70
2022-09-24T10:18:50.539Z,6.30
2022-09-24T10:21:44.605Z,6.00
2022-09-24T10:24:16.703Z,5.70
2022-09-24T10:26:45.819Z,6.10
2022-09-24T10:29:35.432Z,6.20
2022-09-24T10:32:05.269Z,6.30
2022-09-24T10:34:33.718Z,6.00
2022-09-24T10:37:08.705Z,5.40
2022-09-24T10:42:24.445Z,5.70
2022-09-24T10:44:54.107Z,6.10
2022-09-24T10:47:26.727Z,6.20
2022-09-24T10:50:08.835Z,6.30
2022-09-24T10:52:36.593Z,6.20
2022-09-24T10:55:04.373Z,6.20
2022-09-24T10:57:41.952Z,6.40
2022-09-24T11:00:23.355Z,5.80
2022-09-24T11:02:51.323Z,6.40
2022-09-24T11:05:21.446Z,5.80
2022-09-24T11:07:50.422Z,22.90
2022-09-24T11:10:21.367Z,7.00
2022-09-24T11:12:58.434Z,7.00
2022-09-24T11:15:29.176Z,5.90
2022-09-24T11:18:29.310Z,5.80
2022-09-24T11:21:00.022Z,5.90
2022-09-24T11:23:40.182Z,5.30
2022-09-24T11:26:22.875Z,5.40
2022-09-24T11:29:09.612Z,5.80
2022-09-24T11:31:42.723Z,6.10
2022-09-24T11:34:13.931Z,5.50
2022-09-24T11:36:41.963Z,5.50
2022-09-24T11:39:29.327Z,5.10
2022-09-24T11:41:57.906Z,4.60
2022-09-24T11:44:37.962Z,4.50
2022-09-24T11:47:15.452Z,5.40
2022-09-24T11:49:43.337Z,9.00
2022-09-24T11:52:13.845Z,5.00
2022-09-24T11:55:01.074Z,4.90
2022-09-24T11:57:31.810Z,10.00
2022-09-24T12:00:08.259Z,4.50
2022-09-24T12:02:40.625Z,4.20
2022-09-24T12:05:27.548Z,3.80
2022-09-24T12:08:04.016Z,4.10
2022-09-24T12:10:35.364Z,4.50
2022-09-24T12:13:12.534Z,4.50
2022-09-24T12:15:56.456Z,3.70
2022-09-24T12:18:26.412Z,4.20
2022-09-24T12:21:02.771Z,4.00
2022-09-24T12:23:32.400Z,3.30
2022-09-24T12:26:03.223Z,3.20
2022-09-24T12:28:54.402Z,3.30
2022-09-24T12:31:41.388Z,3.40
2022-09-24T12:34:19.543Z,3.60
2022-09-24T12:36:57.171Z,3.50
2022-09-24T12:39:31.266Z,3.00
2022-09-24T12:42:01.887Z,2.80
2022-09-24T12:44:37.333Z,3.40
2022-09-24T12:47:07.753Z,3.60
2022-09-24T12:49:37.572Z,3.30
2022-09-24T12:52:25.924Z,3.00
2022-09-24T12:54:56.951Z,3.00
2022-09-24T12:57:26.599Z,3.50
2022-09-24T13:00:01.588Z,3.10
2022-09-24T13:02:34.043Z,3.10
2022-09-24T13:05:02.868Z,3.10
2022-09-24T13:07:35.248Z,3.20
2022-09-24T13:10:18.658Z,2.70
2022-09-24T13:12:47.404Z,3.80
2022-09-24T13:15:35.780Z,3.20
2022-09-24T13:18:04.586Z,3.50
2022-09-24T13:20:33.770Z,3.40
2022-09-24T13:23:22.226Z,3.70
2022-09-24T13:25:57.876Z,3.10
2022-09-24T13:28:35.740Z,3.20
2022-09-24T13:31:21.712Z,3.40
2022-09-24T13:33:51.586Z,16.20
2022-09-24T13:36:22.811Z,9.80
2022-09-24T13:39:01.156Z,5.90
2022-09-24T13:41:41.593Z,4.50
2022-09-24T13:44:16.421Z,4.50
2022-09-24T13:46:45.619Z,4.20
2022-09-24T13:49:18.842Z,5.40
2022-09-24T13:51:51.592Z,4.20
2022-09-24T13:54:19.458Z,3.50
2022-09-24T13:57:06.269Z,3.50
2022-09-24T13:59:34.031Z,3.00
2022-09-24T14:02:02.335Z,3.20
2022-09-24T14:04:32.531Z,3.20
2022-09-24T14:07:02.801Z,2.90
2022-09-24T14:09:35.335Z,3.20
2022-09-24T14:12:17.636Z,3.00
2022-09-24T14:14:47.622Z,5.60
2022-09-24T14:17:17.564Z,3.80
2022-09-24T14:19:48.087Z,9.90
2022-09-24T14:22:28.192Z,6.70
2022-09-24T14:25:00.226Z,6.00
2022-09-24T14:27:29.298Z,6.80
2022-09-24T14:29:59.550Z,4.60
2022-09-24T14:32:35.157Z,3.40
2022-09-24T14:35:08.068Z,3.30
2022-09-24T14:37:38.441Z,2.80
2022-09-24T14:40:14.282Z,2.70
2022-09-24T14:42:46.686Z,2.80
2022-09-24T14:45:20.908Z,2.70
2022-09-24T14:47:59.233Z,4.20
2022-09-24T14:50:47.793Z,3.50
2022-09-24T14:53:27.240Z,3.30
2022-09-24T14:55:55.297Z,3.80
2022-09-24T14:58:26.235Z,3.50
2022-09-24T15:00:55.832Z,3.10
2022-09-24T15:03:38.147Z,2.90
2022-09-24T15:06:08.034Z,3.10
2022-09-24T15:08:36.329Z,5.80
2022-09-24T15:11:05.424Z,7.30
2022-09-24T15:13:35.027Z,3.60
2022-09-24T15:16:21.338Z,3.10
2022-09-24T15:18:55.850Z,2.50
2022-09-24T15:21:23.927Z,2.50
2022-09-24T15:23:52.302Z,2.60
2022-09-24T15:26:20.573Z,2.80
2022-09-24T15:28:49.155Z,2.70
2022-09-24T15:31:17.819Z,2.30
2022-09-24T15:33:46.015Z,2.50
2022-09-24T15:36:15.352Z,2.80
2022-09-24T15:38:43.598Z,2.60
2022-09-24T15:41:11.660Z,2.50
2022-09-24T15:43:39.734Z,2.60
2022-09-24T15:46:08.059Z,2.60
2022-09-24T15:48:36.491Z,2.80
2022-09-24T15:51:10.135Z,2.50
2022-09-24T15:53:42.607Z,2.80
2022-09-24T15:56:11.453Z,2.80
2022-09-24T15:58:39.698Z,2.60
2022-09-24T16:01:11.240Z,2.70
2022-09-24T16:03:40.682Z,2.90
2022-09-24T16:06:10.298Z,2.70
2022-09-24T16:08:38.562Z,2.40
2022-09-24T16:11:09.262Z,2.80
2022-09-24T16:13:37.688Z,2.70
2022-09-24T16:16:06.617Z,2.70
2022-09-24T16:18:35.714Z,2.80
2022-09-24T16:21:09.994Z,3.00
2022-09-24T16:23:38.264Z,3.10
2022-09-24T16:26:06.635Z,3.30
2022-09-24T16:28:36.050Z,3.20
2022-09-24T16:31:07.141Z,3.30
2022-09-24T16:33:39.041Z,3.20
2022-09-24T16:36:08.234Z,3.20
2022-09-24T16:38:36.817Z,3.50
2022-09-24T16:41:05.603Z,3.00
2022-09-24T16:43:33.879Z,3.80
2022-09-24T16:46:06.784Z,3.60
2022-09-24T16:48:36.163Z,3.80
2022-09-24T16:51:09.045Z,3.80
2022-09-24T16:53:40.916Z,4.40
2022-09-24T16:56:13.495Z,4.50
2022-09-24T16:58:46.558Z,4.70
2022-09-24T17:01:17.132Z,4.80
2022-09-24T17:03:50.306Z,5.60
2022-09-24T17:06:28.710Z,6.10
2022-09-24T17:09:16.259Z,5.30
2022-09-24T17:11:49.747Z,4.90
2022-09-24T17:14:18.106Z,5.60
2022-09-24T17:16:47.400Z,4.70
2022-09-24T17:19:15.992Z,4.60
2022-09-24T17:21:46.172Z,4.80
2022-09-24T17:24:17.805Z,5.00
2022-09-24T17:26:49.725Z,5.30
2022-09-24T17:29:22.646Z,5.20
2022-09-24T17:31:50.584Z,5.20
2022-09-24T17:34:19.060Z,5.50
2022-09-24T17:36:47.026Z,4.80
2022-09-24T17:39:15.712Z,4.60
2022-09-24T17:41:43.593Z,4.80
2022-09-24T17:44:12.882Z,5.10
2022-09-24T17:46:43.815Z,4.90
2022-09-24T17:49:12.822Z,5.20
2022-09-24T17:51:40.875Z,5.30
2022-09-24T17:54:11.101Z,5.40
2022-09-24T17:56:40.771Z,5.40
2022-09-24T17:59:09.805Z,5.50
2022-09-24T18:01:39.687Z,5.30
2022-09-24T18:04:13.420Z,5.60
2022-09-24T18:06:44.888Z,5.60
2022-09-24T18:09:13.967Z,5.30
2022-09-24T18:11:44.624Z,4.90
2022-09-24T18:14:15.021Z,5.10
2022-09-24T18:16:43.810Z,4.70
2022-09-24T18:19:13.637Z,5.10
2022-09-24T18:21:41.904Z,4.50
2022-09-24T18:24:13.450Z,4.30
2022-09-24T18:26:42.323Z,4.40
2022-09-24T18:29:17.370Z,4.20
2022-09-24T18:31:45.649Z,4.30
2022-09-24T18:34:16.194Z,4.80
2022-09-24T18:36:45.579Z,4.60
2022-09-24T18:39:24.688Z,4.80
2022-09-24T18:41:54.321Z,5.20
2022-09-24T18:44:22.702Z,6.00
2022-09-24T18:46:50.933Z,6.30
2022-09-24T18:49:20.171Z,6.20
2022-09-24T18:51:52.504Z,5.10
2022-09-24T18:54:21.585Z,4.60
2022-09-24T18:56:51.431Z,4.60
2022-09-24T18:59:22.418Z,4.70
2022-09-24T19:01:51.235Z,4.90
2022-09-24T19:04:19.853Z,4.20
2022-09-24T19:06:50.382Z,5.00
2022-09-24T19:09:20.503Z,4.60
2022-09-24T19:11:49.615Z,4.50
2022-09-24T19:14:19.409Z,4.90
2022-09-24T19:16:48.734Z,5.50
2022-09-24T19:19:16.795Z,5.40
2022-09-24T19:21:47.833Z,6.10
2022-09-24T19:24:17.635Z,8.90
2022-09-24T19:26:49.965Z,9.20
2022-09-24T19:29:19.608Z,9.40
2022-09-24T19:31:49.320Z,7.80
2022-09-24T19:34:17.285Z,8.20
2022-09-24T19:36:46.079Z,8.20
2022-09-24T19:39:16.031Z,9.30
2022-09-24T19:41:44.983Z,9.40
2022-09-24T19:44:16.863Z,8.90
2022-09-24T19:46:45.476Z,8.40
2022-09-24T19:49:15.319Z,10.00
2022-09-24T19:51:44.122Z,10.80
2022-09-24T19:54:12.842Z,10.90
2022-09-24T19:56:41.719Z,10.60
2022-09-24T19:59:10.281Z,15.80
2022-09-24T20:01:40.436Z,21.30
2022-09-24T20:04:10.256Z,16.10
2022-09-24T20:06:40.436Z,17.10
2022-09-24T20:09:09.021Z,16.40
2022-09-24T20:11:38.008Z,15.10
2022-09-24T20:14:11.814Z,16.30
2022-09-24T20:16:43.066Z,13.60
2022-09-24T20:19:11.753Z,13.00
2022-09-24T20:21:39.615Z,12.50
2022-09-24T20:24:09.010Z,11.80
2022-09-24T20:26:56.035Z,9.70
2022-09-24T20:29:24.420Z,10.00
2022-09-24T20:31:53.910Z,9.40
2022-09-24T20:34:25.075Z,8.80
2022-09-24T20:36:53.684Z,8.00
2022-09-24T20:39:22.542Z,8.20
2022-09-24T20:41:51.325Z,8.40
2022-09-24T20:44:20.611Z,9.20
2022-09-24T20:46:49.065Z,9.20
2022-09-24T20:49:22.620Z,8.90
2022-09-24T20:51:56.703Z,8.80
2022-09-24T20:54:27.035Z,8.90
2022-09-24T20:56:54.999Z,9.50
2022-09-24T20:59:25.178Z,9.40
2022-09-24T21:01:53.617Z,8.20
2022-09-24T21:04:22.575Z,8.30
2022-09-24T21:06:51.179Z,8.80
2022-09-24T21:09:19.352Z,9.30
2022-09-24T21:11:48.699Z,8.80
2022-09-24T21:14:18.143Z,9.20
2022-09-24T21:16:48.036Z,9.70
2022-09-24T21:19:16.340Z,10.40
2022-09-24T21:21:44.303Z,10.90
2022-09-24T21:24:14.464Z,10.20
2022-09-24T21:26:43.791Z,9.80
2022-09-24T21:29:20.884Z,9.70
2022-09-24T21:31:49.180Z,8.40
2022-09-24T21:34:20.365Z,8.70
2022-09-24T21:36:48.702Z,8.70
2022-09-24T21:39:17.903Z,8.30
2022-09-24T21:41:48.182Z,8.10
2022-09-24T21:44:17.963Z,7.90
2022-09-24T21:46:46.320Z,7.90
2022-09-24T21:49:14.995Z,8.50
2022-09-24T21:51:43.684Z,8.10
2022-09-24T21:54:17.629Z,7.40
2022-09-24T21:56:46.286Z,7.90
2022-09-24T21:59:33.700Z,8.60
2022-09-24T22:02:02.490Z,8.80
2022-09-24T22:04:32.610Z,8.10
2022-09-24T22:07:00.505Z,8.30
2022-09-24T22:09:29.258Z,8.40
2022-09-24T22:12:00.485Z,8.50
2022-09-24T22:14:28.609Z,8.70
2022-09-24T22:16:57.005Z,9.20
2022-09-24T22:19:25.128Z,8.70
2022-09-24T22:21:52.993Z,9.60
2022-09-24T22:24:20.926Z,9.80
2022-09-24T22:26:49.238Z,8.40
2022-09-24T22:29:16.925Z,9.20
2022-09-24T22:31:45.557Z,10.30
2022-09-24T22:34:32.411Z,9.50
2022-09-24T22:37:03.737Z,10.10
2022-09-24T22:39:31.711Z,10.90
2022-09-24T22:41:59.574Z,13.90
2022-09-24T22:44:29.266Z,11.70
2022-09-24T22:46:59.101Z,13.30
2022-09-24T22:49:27.069Z,12.60
2022-09-24T22:51:54.957Z,14.00
2022-09-24T22:54:24.749Z,14.70
2022-09-24T22:56:52.751Z,17.00
2022-09-24T22:59:20.573Z,13.60
2022-09-24T23:01:48.468Z,12.60
2022-09-24T23:04:16.433Z,11.20
2022-09-24T23:06:44.488Z,11.80
2022-09-24T23:09:12.456Z,11.60
2022-09-24T23:11:40.619Z,12.00
2022-09-24T23:14:12.944Z,12.20
2022-09-24T23:16:42.771Z,12.90
2022-09-24T23:19:17.989Z,12.10
2022-09-24T23:21:46.522Z,13.30
2022-09-24T23:24:15.822Z,13.20
2022-09-24T23:26:44.518Z,14.00
2022-09-24T23:29:13.079Z,13.30
2022-09-24T23:31:40.683Z,13.00
2022-09-24T23:34:08.725Z,13.80
2022-09-24T23:36:37.424Z,12.90
2022-09-24T23:39:05.793Z,13.70
2022-09-24T23:41:33.753Z,13.20
2022-09-24T23:44:01.925Z,12.40
2022-09-24T23:46:30.865Z,13.20
2022-09-24T23:48:58.557Z,12.90
2022-09-24T23:51:26.856Z,13.30
2022-09-24T23:53:54.551Z,12.80
2022-09-24T23:56:22.742Z,12.60
2022-09-24T23:58:50.301Z,12.40
